Terminal Aerodrome Forecast
Issued by NWS

Home | Current Version | Previous Version | Text Only | Print | Product List | Glossary On
Versions: 1 2 3 4 5 6 7 8 9 10 11 12 13 14 15
000
FTUS45 KGJT 261737
TAFEGE
TAF
KEGE 261737Z 2618/2718 00000KT P6SM SCT090
     FM262000 30008KT P6SM VCTS SCT090CB BKN120
     FM270200 03005KT P6SM VCSH OVC090
     FM270600 VRB03KT P6SM BKN100
     FM271200 VRB03KT P6SM VCSH SCT070=

USA.gov is the U.S. government's official web portal to all federal, state and local government web resources and services.